Time;durP1;ratioP1;P1;durP2;ratioP2;P2;SDS_P1;SDS_P2;PMS_P1;PMS_P2;Temp;Humidity;BMP_temperature;BMP_pressure;BME280_temperature;BME280_humidity;BME280_pressure;Samples;Min_cycle;Max_cycle;Signal;HPM_P1;HPM_P2
2023/05/28 00:02:48;;;;;;;9.48;5.38;;;17.30;80.30;;;;;;6250949;28;20446;-76
2023/05/28 00:05:51;;;;;;;10.13;5.07;;;17.10;80.70;;;;;;6250015;28;20407;-75
2023/05/28 00:08:53;;;;;;;10.45;5.38;;;17.10;80.60;;;;;;6250899;28;20053;-75
2023/05/28 00:11:56;;;;;;;8.55;5.00;;;17.00;81.10;;;;;;6233123;28;20050;-75
2023/05/28 00:14:59;;;;;;;10.55;5.40;;;17.00;81.60;;;;;;6251797;28;20406;-75
2023/05/28 00:18:01;;;;;;;;;;;16.90;81.70;;;;;;6263657;28;20045;-75
2023/05/28 00:21:03;;;;;;;9.77;5.15;;;16.90;81.70;;;;;;6272225;28;19924;-75
2023/05/28 00:24:06;;;;;;;10.10;5.45;;;16.90;81.40;;;;;;6272810;28;20049;-75
2023/05/28 00:27:08;;;;;;;11.65;5.07;;;16.80;81.70;;;;;;6259479;28;20045;-76
2023/05/28 00:30:13;;;;;;;11.13;5.30;;;16.70;82.40;;;;;;6251502;28;20053;-74
2023/05/28 00:33:14;;;;;;;9.57;5.20;;;16.70;82.10;;;;;;6252548;28;20075;-74
2023/05/28 00:36:16;;;;;;;10.10;4.97;;;16.70;82.70;;;;;;6252086;28;20048;-74
2023/05/28 00:39:19;;;;;;;11.23;5.57;;;16.60;82.80;;;;;;6253110;28;20187;-76
2023/05/28 00:42:21;;;;;;;9.48;5.20;;;16.60;83.30;;;;;;6252367;28;20513;-75
2023/05/28 00:45:25;;;;;;;9.32;5.07;;;16.60;83.90;;;;;;6253248;28;20053;-75
2023/05/28 00:48:28;;;;;;;12.05;5.15;;;16.60;83.40;;;;;;6252967;28;20057;-76
2023/05/28 00:51:31;;;;;;;10.15;5.13;;;16.50;83.50;;;;;;6250003;28;20056;-76
2023/05/28 00:54:34;;;;;;;8.35;4.75;;;16.40;83.90;;;;;;6250365;28;20057;-74
2023/05/28 00:57:36;;;;;;;9.40;5.00;;;16.30;84.00;;;;;;6253019;28;20041;-76
2023/05/28 01:00:42;;;;;;;9.50;5.13;;;16.20;84.40;;;;;;6272480;28;20042;-75
2023/05/28 01:03:45;;;;;;;10.70;4.97;;;16.10;84.70;;;;;;6255762;28;20050;-75
2023/05/28 01:06:48;;;;;;;9.45;4.93;;;16.00;84.60;;;;;;6249293;28;20060;-75
2023/05/28 01:09:50;;;;;;;10.13;5.32;;;16.00;84.80;;;;;;6249690;28;20046;-75
2023/05/28 01:12:53;;;;;;;11.45;4.93;;;16.00;85.20;;;;;;6249167;28;20474;-77
2023/05/28 01:15:58;;;;;;;13.70;4.97;;;16.00;85.30;;;;;;6249557;28;20421;-76
2023/05/28 01:19:01;;;;;;;9.98;4.90;;;16.00;85.10;;;;;;6249395;28;20048;-73
2023/05/28 01:22:06;;;;;;;10.38;5.10;;;15.90;85.30;;;;;;6249165;28;20065;-76
2023/05/28 01:25:12;;;;;;;10.77;5.55;;;15.80;85.60;;;;;;6249276;28;20045;-74
2023/05/28 01:28:14;;;;;;;10.48;5.32;;;15.70;86.30;;;;;;6248935;28;20131;-75
2023/05/28 01:31:18;;;;;;;10.70;5.35;;;15.70;86.70;;;;;;6249349;28;20156;-77
2023/05/28 01:34:20;;;;;;;12.88;5.65;;;15.60;87.00;;;;;;6249685;28;20045;-76
2023/05/28 01:37:22;;;;;;;10.80;5.70;;;15.50;87.40;;;;;;6248753;28;20053;-74
2023/05/28 01:40:26;;;;;;;12.02;5.30;;;15.50;87.90;;;;;;6248534;28;20399;-75
2023/05/28 01:43:28;;;;;;;9.70;5.00;;;15.50;87.60;;;;;;6248803;28;20064;-76
2023/05/28 01:46:30;;;;;;;11.13;5.28;;;15.50;87.10;;;;;;6248561;28;20049;-77
2023/05/28 01:49:33;;;;;;;9.68;5.00;;;15.30;87.00;;;;;;6248546;28;20045;-73
2023/05/28 01:52:35;;;;;;;9.93;5.05;;;15.30;87.90;;;;;;6248094;28;20050;-76
2023/05/28 01:55:38;;;;;;;13.65;5.07;;;15.20;88.00;;;;;;6248437;28;20053;-75
2023/05/28 01:58:40;;;;;;;9.80;5.13;;;15.20;88.50;;;;;;6248358;28;20053;-75
2023/05/28 02:01:41;;;;;;;9.13;5.10;;;15.20;88.30;;;;;;6248375;28;20049;-75
2023/05/28 02:04:43;;;;;;;12.27;5.43;;;15.20;87.90;;;;;;6248470;28;20045;-74
2023/05/28 02:07:46;;;;;;;11.32;5.50;;;15.10;88.80;;;;;;6248115;28;20041;-75
2023/05/28 02:10:49;;;;;;;8.98;5.38;;;15.10;89.10;;;;;;6248257;28;20041;-76
2023/05/28 02:13:52;;;;;;;8.93;5.22;;;15.20;88.90;;;;;;6247227;28;20049;-76
2023/05/28 02:16:53;;;;;;;10.45;5.10;;;15.20;89.00;;;;;;6248127;28;20057;-75
2023/05/28 02:19:56;;;;;;;10.00;5.30;;;15.20;89.20;;;;;;6248333;28;20056;-74
2023/05/28 02:22:57;;;;;;;10.55;5.75;;;15.20;89.30;;;;;;6247850;28;20072;-76
2023/05/28 02:26:02;;;;;;;9.38;5.68;;;15.20;89.60;;;;;;6247590;28;20522;-74
2023/05/28 02:29:05;;;;;;;9.98;5.45;;;15.10;89.90;;;;;;6248289;28;20104;-76
2023/05/28 02:32:07;;;;;;;9.87;5.50;;;15.10;90.20;;;;;;6248239;28;20056;-76
2023/05/28 02:35:09;;;;;;;11.85;5.70;;;15.10;90.30;;;;;;6247692;28;20053;-74
2023/05/28 02:38:11;;;;;;;15.45;6.20;;;15.10;90.30;;;;;;6248063;28;20060;-74
2023/05/28 02:41:15;;;;;;;10.48;5.57;;;15.00;90.30;;;;;;6247704;28;20041;-74
2023/05/28 02:44:16;;;;;;;11.63;5.40;;;14.90;90.40;;;;;;6247888;28;20056;-74
2023/05/28 02:47:18;;;;;;;9.40;5.55;;;14.80;90.50;;;;;;6247436;28;20049;-74
2023/05/28 02:50:20;;;;;;;9.88;5.10;;;14.80;90.80;;;;;;6247579;28;20518;-74
2023/05/28 02:53:24;;;;;;;11.38;5.07;;;14.80;90.70;;;;;;6246869;28;20045;-76
2023/05/28 02:56:27;;;;;;;11.57;5.07;;;14.80;90.50;;;;;;6229209;28;20472;-73
2023/05/28 02:59:29;;;;;;;10.27;5.13;;;14.80;90.40;;;;;;6246821;28;20049;-74
2023/05/28 03:02:30;;;;;;;9.10;5.00;;;14.60;90.50;;;;;;6247103;28;20049;-75
2023/05/28 03:05:32;;;;;;;10.20;4.85;;;14.60;90.80;;;;;;6246928;28;20054;-75
2023/05/28 03:08:35;;;;;;;12.02;5.32;;;14.60;90.60;;;;;;6247580;28;20056;-75
2023/05/28 03:11:39;;;;;;;10.95;5.28;;;14.50;90.40;;;;;;6247046;28;20062;-76
2023/05/28 03:14:41;;;;;;;14.15;5.80;;;14.50;90.50;;;;;;6246699;28;20050;-75
2023/05/28 03:17:43;;;;;;;11.90;5.70;;;14.30;90.50;;;;;;6246916;28;20045;-75
2023/05/28 03:20:44;;;;;;;10.07;5.82;;;14.20;90.70;;;;;;6246389;28;20049;-76
2023/05/28 03:23:46;;;;;;;9.55;5.38;;;14.10;91.20;;;;;;6246871;28;20050;-74
2023/05/28 03:26:49;;;;;;;12.57;6.00;;;14.00;91.00;;;;;;6253109;28;20407;-75
2023/05/28 03:29:51;;;;;;;10.02;5.30;;;14.00;91.40;;;;;;6259486;28;20060;-74
2023/05/28 03:32:53;;;;;;;11.02;5.45;;;13.90;91.40;;;;;;6262052;28;20045;-75
2023/05/28 03:35:55;;;;;;;12.43;5.80;;;13.90;91.80;;;;;;6262073;28;20052;-74
2023/05/28 03:38:57;;;;;;;12.35;5.82;;;13.90;92.00;;;;;;6253033;28;20060;-73
2023/05/28 03:42:01;;;;;;;9.98;5.22;;;13.90;92.10;;;;;;6251028;28;20045;-75
2023/05/28 03:45:03;;;;;;;10.55;5.07;;;14.00;92.10;;;;;;6250683;28;20137;-75
2023/05/28 03:48:06;;;;;;;10.40;5.60;;;14.10;92.00;;;;;;6250526;28;20400;-74
2023/05/28 03:51:09;;;;;;;9.82;5.60;;;14.10;92.00;;;;;;6250708;28;20053;-74
2023/05/28 03:54:11;;;;;;;10.70;5.63;;;14.00;92.00;;;;;;6250636;28;20132;-75
2023/05/28 03:57:14;;;;;;;11.50;5.43;;;14.10;92.10;;;;;;6250442;28;20053;-76
2023/05/28 04:00:17;;;;;;;7.90;4.80;;;14.00;92.40;;;;;;6250278;28;20057;-73
2023/05/28 04:03:19;;;;;;;9.93;5.25;;;14.10;92.30;;;;;;6250611;28;20120;-76
2023/05/28 04:06:22;;;;;;;10.73;5.22;;;14.10;92.30;;;;;;6250432;28;20053;-76
2023/05/28 04:09:24;;;;;;;10.05;5.35;;;14.00;92.40;;;;;;6250310;28;20403;-76
2023/05/28 04:12:27;;;;;;;11.80;5.50;;;14.00;92.20;;;;;;6249976;28;20140;-73
2023/05/28 04:15:29;;;;;;;10.13;5.35;;;14.00;92.10;;;;;;6250251;28;20049;-75
2023/05/28 04:18:31;;;;;;;9.65;5.20;;;14.00;92.10;;;;;;6249958;28;20057;-76
2023/05/28 04:21:33;;;;;;;11.48;5.35;;;14.00;92.00;;;;;;6249806;28;20054;-74
2023/05/28 04:24:35;;;;;;;9.10;5.30;;;13.80;92.10;;;;;;6252098;28;20050;-74
2023/05/28 04:27:40;;;;;;;11.75;5.97;;;13.60;92.50;;;;;;6265676;28;20053;-75
2023/05/28 04:30:42;;;;;;;10.63;5.53;;;13.50;93.00;;;;;;6262154;28;20076;-75
2023/05/28 04:33:46;;;;;;;12.88;5.72;;;13.60;93.20;;;;;;6266659;28;20041;-75
2023/05/28 04:36:51;;;;;;;13.07;5.80;;;13.60;93.50;;;;;;6263921;28;20076;-74
2023/05/28 04:39:53;;;;;;;12.98;5.47;;;13.70;93.90;;;;;;6268730;28;20049;-76
2023/05/28 04:42:57;;;;;;;10.20;5.75;;;13.70;94.20;;;;;;6259053;28;20042;-74
2023/05/28 04:45:59;;;;;;;13.88;6.28;;;13.70;94.20;;;;;;6253836;28;20479;-75
2023/05/28 04:49:01;;;;;;;11.60;5.85;;;13.70;94.30;;;;;;6249810;28;20045;-76
2023/05/28 04:52:03;;;;;;;11.30;5.82;;;13.80;94.20;;;;;;6249301;28;20049;-75
2023/05/28 04:55:07;;;;;;;10.77;5.70;;;13.90;94.30;;;;;;6249398;28;20065;-75
2023/05/28 04:58:10;;;;;;;11.07;5.47;;;13.90;94.40;;;;;;6249542;28;20052;-76
2023/05/28 05:01:14;;;;;;;11.38;6.03;;;13.90;94.50;;;;;;6249833;28;20045;-74
2023/05/28 05:04:16;;;;;;;10.43;5.45;;;13.90;94.40;;;;;;6249225;28;20041;-75
2023/05/28 05:07:18;;;;;;;12.43;5.60;;;13.90;94.60;;;;;;6249011;28;20049;-76
2023/05/28 05:10:20;;;;;;;9.35;5.40;;;13.90;94.60;;;;;;6248713;28;20046;-75
2023/05/28 05:13:24;;;;;;;10.40;5.43;;;13.90;94.90;;;;;;6248681;28;20046;-76
2023/05/28 05:16:26;;;;;;;14.38;6.07;;;14.00;95.20;;;;;;6248842;28;20509;-76
2023/05/28 05:19:28;;;;;;;11.27;5.90;;;14.00;95.40;;;;;;6248725;28;20041;-76
2023/05/28 05:22:30;;;;;;;11.13;6.20;;;14.10;95.30;;;;;;6248310;28;20312;-75
2023/05/28 05:25:32;;;;;;;11.27;6.22;;;14.10;95.50;;;;;;6248306;28;20050;-76
2023/05/28 05:28:36;;;;;;;11.75;5.75;;;14.10;95.70;;;;;;6248496;28;20399;-75
2023/05/28 05:31:37;;;;;;;;;;;14.20;96.00;;;;;;6252995;28;20046;-75
2023/05/28 05:34:39;;;;;;;11.43;5.88;;;14.20;96.10;;;;;;6253248;28;19927;-75
2023/05/28 05:37:41;;;;;;;11.93;5.82;;;14.30;95.90;;;;;;6251267;28;20060;-74
2023/05/28 05:40:43;;;;;;;11.07;5.85;;;14.40;95.90;;;;;;6248268;28;20042;-75
2023/05/28 05:43:46;;;;;;;10.43;6.05;;;14.40;95.70;;;;;;6248498;28;20503;-76
2023/05/28 05:46:48;;;;;;;10.88;5.93;;;14.40;95.60;;;;;;6248512;28;20060;-74
2023/05/28 05:49:50;;;;;;;15.68;5.93;;;14.40;95.80;;;;;;6248474;28;20045;-74
2023/05/28 05:52:52;;;;;;;11.05;6.20;;;14.50;95.80;;;;;;6247932;28;20042;-74
2023/05/28 05:55:54;;;;;;;13.10;5.85;;;14.50;96.10;;;;;;6248307;28;20053;-75
2023/05/28 05:58:59;;;;;;;12.07;6.03;;;14.60;95.70;;;;;;6248080;28;20060;-77
2023/05/28 06:02:01;;;;;;;11.75;6.40;;;14.70;95.90;;;;;;6247876;28;20049;-74
2023/05/28 06:05:03;;;;;;;13.35;6.53;;;14.80;95.10;;;;;;6247512;28;20502;-74
2023/05/28 06:08:05;;;;;;;12.73;6.68;;;14.80;95.30;;;;;;6247727;28;20056;-75
2023/05/28 06:11:07;;;;;;;11.45;6.05;;;14.80;95.50;;;;;;6247380;28;20060;-74
2023/05/28 06:14:10;;;;;;;11.48;6.07;;;14.90;95.70;;;;;;6247510;28;20049;-75
2023/05/28 06:17:12;;;;;;;11.10;6.20;;;15.00;95.60;;;;;;6247378;28;20064;-76
2023/05/28 06:20:14;;;;;;;10.35;5.40;;;15.00;94.90;;;;;;6247372;28;20045;-75
2023/05/28 06:23:17;;;;;;;11.25;5.93;;;15.10;94.00;;;;;;6246260;28;20061;-76
2023/05/28 06:26:19;;;;;;;14.57;6.28;;;15.10;93.50;;;;;;6246464;28;20117;-74
2023/05/28 06:29:22;;;;;;;14.00;5.97;;;15.20;93.50;;;;;;6246579;28;20506;-77
2023/05/28 06:32:25;;;;;;;12.75;5.82;;;15.30;92.80;;;;;;6246243;28;20049;-73
2023/05/28 06:35:27;;;;;;;14.13;6.00;;;15.40;92.00;;;;;;6246455;28;20045;-75
2023/05/28 06:38:29;;;;;;;10.45;6.00;;;15.30;92.10;;;;;;6247541;28;20045;-76
2023/05/28 06:41:31;;;;;;;12.50;5.43;;;15.40;92.50;;;;;;6258612;28;20057;-76
2023/05/28 06:44:35;;;;;;;14.20;5.88;;;15.50;92.70;;;;;;6261102;28;20128;-74
2023/05/28 06:47:37;;;;;;;11.93;5.85;;;15.60;93.20;;;;;;6258579;28;20055;-77
2023/05/28 06:50:39;;;;;;;12.57;5.57;;;15.60;92.70;;;;;;6241682;28;20048;-75
2023/05/28 06:53:41;;;;;;;8.55;5.20;;;15.70;92.50;;;;;;6269228;28;20056;-75
2023/05/28 06:56:42;;;;;;;13.10;5.60;;;15.70;92.40;;;;;;6269285;28;20042;-75
2023/05/28 06:59:46;;;;;;;12.32;5.45;;;15.80;91.60;;;;;;6259767;28;20064;-74
2023/05/28 07:02:47;;;;;;;13.30;5.22;;;15.80;91.20;;;;;;6251337;28;20053;-75
2023/05/28 07:05:49;;;;;;;13.32;5.10;;;15.90;90.70;;;;;;6250897;28;20053;-75
2023/05/28 07:08:52;;;;;;;10.73;5.20;;;15.90;89.20;;;;;;6250811;28;20128;-74
2023/05/28 07:11:54;;;;;;;10.00;4.95;;;16.00;89.30;;;;;;6251400;28;20376;-75
2023/05/28 07:14:57;;;;;;;11.80;4.93;;;16.10;88.50;;;;;;6250447;28;20054;-74
2023/05/28 07:18:00;;;;;;;11.70;5.13;;;16.20;89.90;;;;;;6250209;28;20053;-74
2023/05/28 07:21:03;;;;;;;9.40;4.80;;;16.30;90.00;;;;;;6203974;28;1329622;-74
2023/05/28 07:24:08;;;;;;;12.77;4.57;;;16.40;90.60;;;;;;6233909;28;20060;-74
2023/05/28 07:27:10;;;;;;;10.80;4.45;;;16.50;90.20;;;;;;6251326;28;20077;-74
2023/05/28 07:30:14;;;;;;;10.23;5.10;;;16.60;90.70;;;;;;6251163;28;20123;-75
2023/05/28 07:33:16;;;;;;;11.52;4.90;;;16.60;90.90;;;;;;6252414;28;20042;-76
2023/05/28 07:36:19;;;;;;;11.27;5.05;;;16.60;88.30;;;;;;6251458;28;20057;-75
2023/05/28 07:39:21;;;;;;;11.63;4.70;;;16.70;87.10;;;;;;6252217;28;20042;-73
2023/05/28 07:42:23;;;;;;;10.50;4.40;;;16.80;86.60;;;;;;6251674;28;20045;-74
2023/05/28 07:45:27;;;;;;;12.45;4.93;;;16.90;85.80;;;;;;6251192;28;20053;-75
2023/05/28 07:48:29;;;;;;;11.40;4.68;;;16.90;86.40;;;;;;6251351;28;20057;-76
2023/05/28 07:51:32;;;;;;;11.77;4.57;;;17.00;86.10;;;;;;6250010;28;20049;-74
2023/05/28 07:54:35;;;;;;;10.25;4.70;;;16.90;87.60;;;;;;6250926;28;20049;-74
2023/05/28 07:57:36;;;;;;;12.57;5.10;;;17.00;85.70;;;;;;6250899;28;20495;-75
2023/05/28 08:00:40;;;;;;;8.35;4.55;;;17.10;86.80;;;;;;6250472;28;20379;-75
2023/05/28 08:03:42;;;;;;;12.90;4.72;;;17.20;86.20;;;;;;6250426;28;20049;-75
2023/05/28 08:06:43;;;;;;;11.18;4.45;;;17.30;85.30;;;;;;6250377;28;20053;-73
2023/05/28 08:09:45;;;;;;;11.18;4.32;;;17.40;85.00;;;;;;6251090;28;20052;-74
2023/05/28 08:12:47;;;;;;;13.20;4.55;;;17.60;85.50;;;;;;6249716;28;20052;-75
2023/05/28 08:15:51;;;;;;;11.40;4.53;;;17.60;82.10;;;;;;6250386;28;20053;-76
2023/05/28 08:18:53;;;;;;;11.25;4.60;;;17.70;80.70;;;;;;6250117;28;20054;-75
2023/05/28 08:21:55;;;;;;;11.23;4.55;;;17.80;80.60;;;;;;6249943;28;20514;-76
2023/05/28 08:24:57;;;;;;;10.75;4.63;;;17.80;81.10;;;;;;6249718;28;20053;-76
2023/05/28 08:27:59;;;;;;;11.63;4.47;;;17.90;79.70;;;;;;6249939;28;20188;-75
2023/05/28 08:31:02;;;;;;;11.93;4.30;;;18.00;79.30;;;;;;6249725;28;20108;-74
2023/05/28 08:34:04;;;;;;;11.90;4.30;;;18.10;79.90;;;;;;6249546;28;20061;-74
2023/05/28 08:37:07;;;;;;;11.82;5.20;;;18.20;81.10;;;;;;6249462;28;20056;-75
2023/05/28 08:40:10;;;;;;;15.40;4.97;;;18.10;79.60;;;;;;6249754;28;20041;-75
2023/05/28 08:43:15;;;;;;;;;;;18.30;80.80;;;;;;6249959;28;20552;-75
2023/05/28 08:46:20;;;;;;;11.45;4.65;;;18.40;81.30;;;;;;6249631;28;19929;-76
2023/05/28 08:49:27;;;;;;;10.98;4.80;;;18.50;81.10;;;;;;6249043;28;20045;-76
2023/05/28 08:52:32;;;;;;;13.40;5.55;;;18.50;81.50;;;;;;6250373;28;20053;-75
2023/05/28 08:55:34;;;;;;;12.38;5.15;;;18.60;82.10;;;;;;6252352;28;20049;-74
2023/05/28 08:58:38;;;;;;;13.63;5.10;;;18.80;82.10;;;;;;6253488;28;20107;-75
2023/05/28 09:01:41;;;;;;;10.75;4.85;;;18.90;82.30;;;;;;6250072;28;20403;-75
2023/05/28 09:04:46;;;;;;;10.25;4.50;;;19.00;82.60;;;;;;6250570;28;20187;-74
2023/05/28 09:07:47;;;;;;;11.90;4.60;;;19.00;81.40;;;;;;6249697;28;20119;-74
2023/05/28 09:10:49;;;;;;;10.48;4.68;;;19.10;80.30;;;;;;6249376;28;20415;-75
2023/05/28 09:13:51;;;;;;;10.65;4.80;;;19.20;81.10;;;;;;6249508;28;20045;-75
2023/05/28 09:16:54;;;;;;;10.40;4.50;;;19.30;81.30;;;;;;6250488;28;20053;-75
2023/05/28 09:19:59;;;;;;;14.13;4.43;;;19.30;80.70;;;;;;6249621;28;20055;-75
2023/05/28 09:23:04;;;;;;;10.43;4.60;;;19.50;80.10;;;;;;6248652;28;20057;-73
2023/05/28 09:26:10;;;;;;;11.80;4.47;;;19.60;80.20;;;;;;6249285;28;20041;-76
2023/05/28 09:29:15;;;;;;;10.85;4.07;;;19.70;78.50;;;;;;6249218;28;20484;-74
2023/05/28 09:32:21;;;;;;;9.93;4.38;;;19.70;77.70;;;;;;6249606;28;20057;-73
2023/05/28 09:35:26;;;;;;;16.13;4.47;;;19.80;78.00;;;;;;6253221;28;20053;-76
2023/05/28 09:38:38;;;;;;;12.15;4.80;;;19.90;78.40;;;;;;6257351;28;20049;-74
2023/05/28 09:41:44;;;;;;;12.20;4.78;;;20.00;78.10;;;;;;6254509;28;20045;-74
2023/05/28 09:44:45;;;;;;;9.82;4.60;;;20.10;78.60;;;;;;6251807;28;20487;-76
2023/05/28 09:47:49;;;;;;;10.43;4.38;;;20.10;77.60;;;;;;6248194;28;20064;-74
2023/05/28 09:50:51;;;;;;;;;;;20.20;75.60;;;;;;6249122;28;20045;-75
2023/05/28 09:53:58;;;;;;;12.30;4.40;;;20.30;75.90;;;;;;6248629;28;20302;-73
2023/05/28 09:57:03;;;;;;;12.50;4.40;;;20.40;75.00;;;;;;6231115;28;20060;-75
2023/05/28 10:00:13;;;;;;;10.52;4.35;;;20.50;73.70;;;;;;6249329;28;20049;-74
2023/05/28 10:03:25;;;;;;;9.25;4.07;;;20.50;73.90;;;;;;6234153;28;20542;-74
2023/05/28 10:06:28;;;;;;;9.25;3.83;;;20.70;74.40;;;;;;6251267;28;20136;-75
2023/05/28 10:09:33;;;;;;;10.57;4.53;;;20.70;72.00;;;;;;6249556;28;20053;-73
2023/05/28 10:12:35;;;;;;;10.45;4.30;;;20.80;71.70;;;;;;6248463;28;20053;-75
2023/05/28 10:15:37;;;;;;;9.70;4.20;;;20.90;71.40;;;;;;6248107;28;20111;-74
2023/05/28 10:18:42;;;;;;;8.50;3.90;;;21.00;70.60;;;;;;6248084;28;20081;-74
2023/05/28 10:21:44;;;;;;;11.70;4.25;;;21.00;69.70;;;;;;6248054;28;20403;-76
2023/05/28 10:24:47;;;;;;;8.75;3.90;;;21.10;70.40;;;;;;6248043;28;20049;-74
2023/05/28 10:27:49;;;;;;;9.40;4.40;;;21.30;69.50;;;;;;6247890;28;20060;-74
2023/05/28 10:31:03;;;;;;;9.73;4.53;;;21.30;67.80;;;;;;6247939;28;20048;-74
2023/05/28 10:34:16;;;;;;;8.90;3.92;;;21.30;67.60;;;;;;6248364;28;20045;-74
2023/05/28 10:37:23;;;;;;;;;;;21.40;67.60;;;;;;6253402;28;20510;-74
2023/05/28 10:40:25;;;;;;;13.02;4.30;;;21.50;68.90;;;;;;6252828;28;19928;-73
2023/05/28 10:43:45;;;;;;;10.55;4.68;;;21.50;66.40;;;;;;6252873;28;20045;-74
2023/05/28 10:46:56;;;;;;;10.02;4.72;;;21.60;66.00;;;;;;6252410;28;20049;-73
2023/05/28 10:50:12;;;;;;;12.40;4.57;;;21.70;66.30;;;;;;6252962;28;20046;-74
2023/05/28 10:53:18;;;;;;;8.43;3.60;;;21.80;65.30;;;;;;6252538;28;20045;-75
2023/05/28 10:56:20;;;;;;;7.63;3.58;;;21.80;64.50;;;;;;6252285;28;20050;-75
2023/05/28 10:59:38;;;;;;;9.43;3.70;;;21.90;64.80;;;;;;6252439;28;20052;-75
2023/05/28 11:02:44;;;;;;;9.98;3.78;;;22.00;64.40;;;;;;6252208;28;20049;-74
2023/05/28 11:05:48;;;;;;;11.02;3.80;;;22.00;64.30;;;;;;6252151;28;20053;-75
2023/05/28 11:08:50;;;;;;;12.43;4.18;;;22.10;63.90;;;;;;6251918;28;20053;-75
2023/05/28 11:11:52;;;;;;;7.68;3.75;;;22.00;62.30;;;;;;6252340;28;20494;-75
2023/05/28 11:14:54;;;;;;;10.15;4.10;;;22.10;63.10;;;;;;6252478;28;20056;-76
2023/05/28 11:17:56;;;;;;;7.78;3.60;;;22.20;63.00;;;;;;6252569;28;20384;-74
2023/05/28 11:21:07;;;;;;;7.93;3.63;;;22.30;62.50;;;;;;6252047;28;20051;-74
2023/05/28 11:24:08;;;;;;;9.60;3.80;;;22.40;61.90;;;;;;6251960;28;20389;-74
2023/05/28 11:27:10;;;;;;;8.00;3.53;;;22.50;62.80;;;;;;6251408;28;20060;-74
2023/05/28 11:30:15;;;;;;;9.43;3.80;;;22.50;60.80;;;;;;6251113;28;20125;-73
2023/05/28 11:33:20;;;;;;;11.00;3.80;;;22.60;59.70;;;;;;6251513;28;20199;-75
2023/05/28 11:36:23;;;;;;;10.30;4.07;;;22.60;58.80;;;;;;6251160;28;20053;-75
2023/05/28 11:39:25;;;;;;;8.85;3.70;;;22.70;59.80;;;;;;6251441;28;20053;-74
2023/05/28 11:42:29;;;;;;;7.85;3.63;;;22.80;61.60;;;;;;6251923;28;20052;-73
2023/05/28 11:45:37;;;;;;;12.57;4.15;;;22.90;59.40;;;;;;6250771;28;20045;-76
2023/05/28 11:48:41;;;;;;;9.07;3.60;;;23.00;58.10;;;;;;6250841;28;20525;-75
2023/05/28 11:51:45;;;;;;;6.65;3.30;;;23.10;57.20;;;;;;6251521;28;20047;-75
2023/05/28 11:54:57;;;;;;;8.00;3.30;;;23.20;57.20;;;;;;6251496;28;20045;-75
2023/05/28 11:58:00;;;;;;;7.82;3.22;;;23.20;56.80;;;;;;6250810;28;20085;-75
2023/05/28 12:01:02;;;;;;;7.15;3.40;;;23.40;57.50;;;;;;6250995;28;20056;-74
2023/05/28 12:04:07;;;;;;;9.23;3.75;;;23.50;54.40;;;;;;6251177;28;20046;-74
2023/05/28 12:07:12;;;;;;;8.20;3.45;;;23.50;54.20;;;;;;6250592;28;20419;-73
2023/05/28 12:10:19;;;;;;;8.77;3.90;;;23.60;55.90;;;;;;6250673;28;20388;-74
2023/05/28 12:13:21;;;;;;;9.60;3.63;;;23.70;55.70;;;;;;6250760;28;20046;-74
2023/05/28 12:16:25;;;;;;;8.70;3.72;;;23.70;53.60;;;;;;6250622;28;20056;-75
2023/05/28 12:19:34;;;;;;;7.30;3.72;;;23.80;55.20;;;;;;6250834;28;20049;-74
2023/05/28 12:22:37;;;;;;;7.18;3.63;;;24.00;56.10;;;;;;6250480;28;20061;-73
2023/05/28 12:25:50;;;;;;;;;;;24.10;55.10;;;;;;6251351;28;20057;-74
2023/05/28 12:28:52;;;;;;;10.90;4.40;;;24.20;54.90;;;;;;6250101;28;19921;-75
2023/05/28 12:32:00;;;;;;;8.55;3.92;;;24.30;54.70;;;;;;6250196;28;20486;-74
2023/05/28 12:35:02;;;;;;;7.40;3.90;;;24.40;56.40;;;;;;6250060;28;20052;-73
2023/05/28 12:38:06;;;;;;;8.52;3.92;;;24.60;55.10;;;;;;6250335;28;20049;-79
2023/05/28 12:41:08;;;;;;;;;;;24.70;54.70;;;;;;6251640;28;20050;-73
2023/05/28 12:44:09;;;;;;;10.57;4.30;;;24.60;56.10;;;;;;6250329;28;19924;-76
2023/05/28 12:47:12;;;;;;;10.85;4.00;;;24.70;57.60;;;;;;6250488;28;20069;-76
2023/05/28 12:50:14;;;;;;;17.25;8.80;;;24.90;56.20;;;;;;6261272;28;20051;-75
2023/05/28 12:53:17;;;;;;;10.98;5.47;;;24.90;55.20;;;;;;6257865;28;20049;-76
2023/05/28 12:56:19;;;;;;;;;;;25.10;57.00;;;;;;6258566;28;20049;-75
2023/05/28 12:59:22;;;;;;;8.27;4.80;;;25.20;55.90;;;;;;6256034;28;19925;-75
2023/05/28 13:02:24;;;;;;;10.15;4.03;;;25.30;55.70;;;;;;6249827;28;20300;-76
2023/05/28 13:05:26;;;;;;;8.00;3.78;;;25.10;55.30;;;;;;6249815;28;20056;-76
2023/05/28 13:08:36;;;;;;;9.07;4.13;;;25.20;55.20;;;;;;6249315;28;20056;-75
2023/05/28 13:11:39;;;;;;;9.85;4.47;;;25.50;56.20;;;;;;6249495;28;20049;-75
2023/05/28 13:14:41;;;;;;;9.60;4.80;;;25.60;54.00;;;;;;6249329;28;20053;-73
2023/05/28 13:17:44;;;;;;;10.52;4.53;;;25.80;54.40;;;;;;6249313;28;20049;-75
2023/05/28 13:20:46;;;;;;;11.48;4.57;;;26.00;53.70;;;;;;6249261;28;20050;-77
2023/05/28 13:23:49;;;;;;;8.38;4.10;;;26.10;52.00;;;;;;6255374;28;20049;-74
2023/05/28 13:26:51;;;;;;;9.45;4.43;;;26.20;51.00;;;;;;6258590;28;20046;-73
2023/05/28 13:29:53;;;;;;;10.80;4.72;;;26.30;52.20;;;;;;6260953;28;20053;-75
2023/05/28 13:32:54;;;;;;;8.60;4.25;;;26.10;52.00;;;;;;6257113;28;20045;-75
2023/05/28 13:35:56;;;;;;;8.27;4.22;;;26.30;52.40;;;;;;6263322;28;20049;-74
2023/05/28 13:39:03;;;;;;;10.43;4.28;;;26.50;52.90;;;;;;6268357;28;20049;-75
2023/05/28 13:42:07;;;;;;;9.65;4.35;;;26.70;52.10;;;;;;6236237;28;20569;-74
2023/05/28 13:45:10;;;;;;;;;;;27.00;49.30;;;;;;6250045;28;20073;-75
2023/05/28 13:48:12;;;;;;;8.25;3.95;;;27.10;51.40;;;;;;6248633;28;19928;-74
2023/05/28 13:51:14;;;;;;;9.20;4.18;;;27.30;50.30;;;;;;6248345;28;20052;-76
2023/05/28 13:54:17;;;;;;;9.05;4.00;;;27.10;48.60;;;;;;6248808;28;20045;-76
2023/05/28 13:57:20;;;;;;;8.68;4.60;;;27.00;49.30;;;;;;6248443;28;20049;-75
2023/05/28 14:00:22;;;;;;;8.23;4.83;;;27.30;48.80;;;;;;6248490;28;20072;-73
2023/05/28 14:03:23;;;;;;;9.38;4.57;;;27.30;49.10;;;;;;6248518;28;20061;-75
2023/05/28 14:06:26;;;;;;;9.07;4.55;;;27.50;48.20;;;;;;6248126;28;20389;-74
2023/05/28 14:09:29;;;;;;;8.50;4.35;;;27.50;48.20;;;;;;6247603;28;20053;-74
2023/05/28 14:12:31;;;;;;;9.32;4.18;;;27.50;48.40;;;;;;6247995;28;20179;-73
2023/05/28 14:15:33;;;;;;;8.18;3.92;;;27.40;48.20;;;;;;6248181;28;20049;-73
2023/05/28 14:18:35;;;;;;;10.60;4.17;;;27.60;48.00;;;;;;6247956;28;20053;-74
2023/05/28 14:21:37;;;;;;;12.45;7.72;;;27.90;48.00;;;;;;6247855;28;20064;-73
2023/05/28 14:24:40;;;;;;;14.43;8.45;;;27.90;47.40;;;;;;6247805;28;20168;-74
2023/05/28 14:27:42;;;;;;;7.95;4.20;;;27.90;47.60;;;;;;6247971;28;20042;-73
2023/05/28 14:30:44;;;;;;;7.25;3.80;;;28.00;46.10;;;;;;6247672;28;20045;-74
2023/05/28 14:33:46;;;;;;;9.52;4.57;;;28.00;46.00;;;;;;6248154;28;20072;-75
2023/05/28 14:36:48;;;;;;;8.95;4.30;;;28.30;45.70;;;;;;6250309;28;20080;-75
2023/05/28 14:39:51;;;;;;;8.05;3.95;;;27.90;45.20;;;;;;6248268;28;20057;-73
2023/05/28 14:42:54;;;;;;;9.52;3.78;;;28.10;45.60;;;;;;6247932;28;20045;-74
2023/05/28 14:45:57;;;;;;;7.75;3.90;;;28.30;46.30;;;;;;6247904;28;20041;-75
2023/05/28 14:48:59;;;;;;;7.53;3.90;;;28.60;45.90;;;;;;6247824;28;20053;-74
2023/05/28 14:52:24;;;;;;;9.33;4.13;;;28.90;46.60;;;;;;6247534;28;20056;-76
2023/05/28 14:55:26;;;;;;;8.52;4.32;;;29.10;44.60;;;;;;6247547;28;20389;-76
2023/05/28 14:58:29;;;;;;;8.02;3.80;;;29.10;44.60;;;;;;6247707;28;20053;-75
2023/05/28 15:01:30;;;;;;;7.90;4.03;;;29.00;43.80;;;;;;6247560;28;20057;-76
2023/05/28 15:04:32;;;;;;;9.18;4.07;;;29.20;44.40;;;;;;6247476;28;20388;-74
2023/05/28 15:07:36;;;;;;;8.38;3.63;;;29.40;43.90;;;;;;6248029;28;20542;-75
2023/05/28 15:10:37;;;;;;;7.13;3.80;;;29.80;44.20;;;;;;6247221;28;20519;-75
2023/05/28 15:13:40;;;;;;;8.80;4.10;;;30.10;42.80;;;;;;6247591;28;20050;-74
2023/05/28 15:16:42;;;;;;;7.80;4.30;;;30.40;42.40;;;;;;6247199;28;20050;-75
2023/05/28 15:19:44;;;;;;;7.85;4.18;;;30.30;42.50;;;;;;6248245;28;20503;-75
2023/05/28 15:22:47;;;;;;;8.17;4.03;;;30.20;41.90;;;;;;6235168;28;20510;-76
2023/05/28 15:25:49;;;;;;;7.85;4.10;;;30.30;42.90;;;;;;6252258;28;20053;-74
2023/05/28 15:28:51;;;;;;;9.13;3.97;;;30.60;42.80;;;;;;6252788;28;20046;-77
2023/05/28 15:31:54;;;;;;;7.25;3.92;;;30.30;41.90;;;;;;6252686;28;20053;-74
2023/05/28 15:34:57;;;;;;;7.78;4.13;;;30.40;40.50;;;;;;6252828;28;20507;-75
2023/05/28 15:38:01;;;;;;;7.43;4.10;;;30.50;40.60;;;;;;6252286;28;20069;-75
2023/05/28 15:41:03;;;;;;;6.80;3.63;;;30.50;40.10;;;;;;6253472;28;20058;-75
2023/05/28 15:44:05;;;;;;;8.43;3.50;;;30.10;40.50;;;;;;6252812;28;20045;-73
2023/05/28 15:47:07;;;;;;;11.50;6.60;;;30.40;41.00;;;;;;6254795;28;20046;-76
2023/05/28 15:50:10;;;;;;;7.45;4.03;;;31.30;40.60;;;;;;6252804;28;20060;-75